sensor_id;sensor_type;location;lat;lon;timestamp;pressure;altitude;pressure_sealevel;temperature;humidity
23339;BME280;11841;49.368;20.962;2023-02-21T00:00:12;94974.25;;;7.99;73.23
23339;BME280;11841;49.368;20.962;2023-02-21T00:02:57;94977.94;;;7.98;72.27
23339;BME280;11841;49.368;20.962;2023-02-21T00:05:42;94972.66;;;7.98;72.91
23339;BME280;11841;49.368;20.962;2023-02-21T00:08:27;94990.47;;;8.03;73.06
23339;BME280;11841;49.368;20.962;2023-02-21T00:11:12;94972.66;;;7.98;72.50
23339;BME280;11841;49.368;20.962;2023-02-21T00:13:57;94993.41;;;7.95;72.49
23339;BME280;11841;49.368;20.962;2023-02-21T00:16:42;94982.41;;;7.98;72.95
23339;BME280;11841;49.368;20.962;2023-02-21T00:19:27;94971.84;;;7.98;73.05
23339;BME280;11841;49.368;20.962;2023-02-21T00:22:12;94982.56;;;8.03;72.48
23339;BME280;11841;49.368;20.962;2023-02-21T00:24:57;94983.75;;;8.07;72.23
23339;BME280;11841;49.368;20.962;2023-02-21T00:27:42;94967.75;;;8.02;72.65
23339;BME280;11841;49.368;20.962;2023-02-21T00:30:26;94962.09;;;7.98;72.60
23339;BME280;11841;49.368;20.962;2023-02-21T00:33:11;94964.97;;;7.97;72.60
23339;BME280;11841;49.368;20.962;2023-02-21T00:35:57;94964.50;;;8.00;72.61
23339;BME280;11841;49.368;20.962;2023-02-21T00:38:42;94953.16;;;7.99;72.62
23339;BME280;11841;49.368;20.962;2023-02-21T00:41:27;94964.97;;;7.97;73.35
23339;BME280;11841;49.368;20.962;2023-02-21T00:44:12;94960.88;;;8.01;72.78
23339;BME280;11841;49.368;20.962;2023-02-21T00:46:57;94961.66;;;8.01;72.67
23339;BME280;11841;49.368;20.962;2023-02-21T00:49:42;94955.78;;;7.99;73.19
23339;BME280;11841;49.368;20.962;2023-02-21T00:52:27;94948.91;;;7.98;73.29
23339;BME280;11841;49.368;20.962;2023-02-21T00:55:12;94957.03;;;7.97;72.72
23339;BME280;11841;49.368;20.962;2023-02-21T00:57:57;94954.78;;;8.00;73.18
23339;BME280;11841;49.368;20.962;2023-02-21T01:00:42;94953.38;;;7.98;73.07
23339;BME280;11841;49.368;20.962;2023-02-21T01:03:27;94941.66;;;7.94;73.18
23339;BME280;11841;49.368;20.962;2023-02-21T01:06:12;94941.66;;;7.94;73.39
23339;BME280;11841;49.368;20.962;2023-02-21T01:08:57;94951.97;;;7.95;73.10
23339;BME280;11841;49.368;20.962;2023-02-21T01:11:42;94937.38;;;7.93;73.19
23339;BME280;11841;49.368;20.962;2023-02-21T01:14:27;94958.13;;;7.89;73.08
23339;BME280;11841;49.368;20.962;2023-02-21T01:17:12;94947.34;;;7.91;73.55
23339;BME280;11841;49.368;20.962;2023-02-21T01:19:56;94937.59;;;7.91;73.49
23339;BME280;11841;49.368;20.962;2023-02-21T01:22:44;94933.72;;;7.94;73.10
23339;BME280;11841;49.368;20.962;2023-02-21T01:25:29;94923.19;;;7.94;73.11
23339;BME280;11841;49.368;20.962;2023-02-21T01:28:14;94935.78;;;7.92;73.04
23339;BME280;11841;49.368;20.962;2023-02-21T01:30:59;94933.72;;;7.94;73.52
23339;BME280;11841;49.368;20.962;2023-02-21T01:33:44;94930.50;;;7.92;73.40
23339;BME280;11841;49.368;20.962;2023-02-21T01:36:29;94940.63;;;7.95;73.54
23339;BME280;11841;49.368;20.962;2023-02-21T01:39:14;94929.59;;;7.98;73.11
23339;BME280;11841;49.368;20.962;2023-02-21T01:41:59;94929.59;;;7.98;73.24
23339;BME280;11841;49.368;20.962;2023-02-21T01:44:45;94922.72;;;7.97;72.87
23339;BME280;11841;49.368;20.962;2023-02-21T01:47:31;94917.00;;;8.00;73.28
23339;BME280;11841;49.368;20.962;2023-02-21T01:53:09;94923.31;;;7.99;73.25
23339;BME280;11841;49.368;20.962;2023-02-21T01:55:55;94926.34;;;8.02;73.19
23339;BME280;11841;49.368;20.962;2023-02-21T01:58:41;94908.63;;;8.03;73.09
23339;BME280;11841;49.368;20.962;2023-02-21T02:01:30;94916.00;;;8.01;73.35
23339;BME280;11841;49.368;20.962;2023-02-21T02:04:16;94915.84;;;7.96;73.38
23339;BME280;11841;49.368;20.962;2023-02-21T02:07:02;94926.81;;;7.93;73.41
23339;BME280;11841;49.368;20.962;2023-02-21T02:09:47;94907.34;;;7.94;73.17
23339;BME280;11841;49.368;20.962;2023-02-21T02:12:40;94898.97;;;7.97;73.58
23339;BME280;11841;49.368;20.962;2023-02-21T02:22:54;94873.91;;;7.88;73.98
23339;BME280;11841;49.368;20.962;2023-02-21T02:33:45;94877.28;;;7.95;74.08
23339;BME280;11841;49.368;20.962;2023-02-21T02:36:26;94901.03;;;7.95;74.44
23339;BME280;11841;49.368;20.962;2023-02-21T02:41:31;94867.06;;;7.98;74.68
23339;BME280;11841;49.368;20.962;2023-02-21T02:44:17;94862.16;;;8.02;74.80
23339;BME280;11841;49.368;20.962;2023-02-21T02:46:46;94867.44;;;8.02;74.41
23339;BME280;11841;49.368;20.962;2023-02-21T02:49:24;94871.53;;;7.98;74.57
23339;BME280;11841;49.368;20.962;2023-02-21T02:51:53;94873.19;;;7.99;75.28
23339;BME280;11841;49.368;20.962;2023-02-21T02:54:20;94868.91;;;7.98;75.45
23339;BME280;11841;49.368;20.962;2023-02-21T02:56:46;94867.31;;;7.97;75.43
23339;BME280;11841;49.368;20.962;2023-02-21T02:59:18;94872.59;;;7.97;75.58
23339;BME280;11841;49.368;20.962;2023-02-21T03:09:22;94875.66;;;7.94;75.96
23339;BME280;11841;49.368;20.962;2023-02-21T03:11:56;94874.03;;;7.93;76.41
23339;BME280;11841;49.368;20.962;2023-02-21T03:14:25;94873.44;;;7.91;76.76
23339;BME280;11841;49.368;20.962;2023-02-21T03:16:56;94867.16;;;7.92;76.99
23339;BME280;11841;49.368;20.962;2023-02-21T03:19:33;94866.56;;;7.90;77.03
23339;BME280;11841;49.368;20.962;2023-02-21T03:22:01;94873.66;;;7.89;77.57
23339;BME280;11841;49.368;20.962;2023-02-21T03:24:29;94884.00;;;7.91;77.18
23339;BME280;11841;49.368;20.962;2023-02-21T03:26:58;94899.28;;;7.89;77.54
23339;BME280;11841;49.368;20.962;2023-02-21T03:29:27;94870.81;;;7.91;77.94
23339;BME280;11841;49.368;20.962;2023-02-21T03:31:54;94884.22;;;7.89;77.85
23339;BME280;11841;49.368;20.962;2023-02-21T03:34:23;94887.91;;;7.88;78.00
23339;BME280;11841;49.368;20.962;2023-02-21T03:36:49;94887.69;;;7.90;78.04
23339;BME280;11841;49.368;20.962;2023-02-21T03:39:16;94893.56;;;7.92;78.42
23339;BME280;11841;49.368;20.962;2023-02-21T03:41:42;94880.13;;;7.93;78.31
23339;BME280;11841;49.368;20.962;2023-02-21T03:44:09;94893.09;;;7.95;78.24
23339;BME280;11841;49.368;20.962;2023-02-21T03:46:35;94888.28;;;7.92;78.54
23339;BME280;11841;49.368;20.962;2023-02-21T03:49:05;94891.91;;;7.91;78.16
23339;BME280;11841;49.368;20.962;2023-02-21T03:51:31;94896.19;;;7.92;78.75
23339;BME280;11841;49.368;20.962;2023-02-21T03:53:57;94887.69;;;7.90;78.48
23339;BME280;11841;49.368;20.962;2023-02-21T03:56:24;94880.34;;;7.92;78.57
23339;BME280;11841;49.368;20.962;2023-02-21T03:59:05;94884.38;;;7.94;78.36
23339;BME280;11841;49.368;20.962;2023-02-21T04:01:32;94886.22;;;7.94;79.18
23339;BME280;11841;49.368;20.962;2023-02-21T04:03:58;94882.53;;;7.95;79.18
23339;BME280;11841;49.368;20.962;2023-02-21T04:06:25;94882.91;;;7.98;79.12
23339;BME280;11841;49.368;20.962;2023-02-21T04:08:51;94882.78;;;7.93;78.57
23339;BME280;11841;49.368;20.962;2023-02-21T04:11:19;94872.44;;;7.92;79.19
23339;BME280;11841;49.368;20.962;2023-02-21T04:13:45;94862.47;;;7.94;78.64
23339;BME280;11841;49.368;20.962;2023-02-21T04:16:12;94868.75;;;7.93;79.00
23339;BME280;11841;49.368;20.962;2023-02-21T04:18:38;94874.47;;;7.90;79.74
23339;BME280;11841;49.368;20.962;2023-02-21T04:21:05;94879.91;;;7.95;79.59
23339;BME280;11841;49.368;20.962;2023-02-21T04:23:31;94872.00;;;7.95;79.54
23339;BME280;11841;49.368;20.962;2023-02-21T04:25:58;94880.88;;;8.00;79.51
23339;BME280;11841;49.368;20.962;2023-02-21T04:28:24;94852.28;;;7.97;80.03
23339;BME280;11841;49.368;20.962;2023-02-21T04:30:51;94856.53;;;7.98;79.38
23339;BME280;11841;49.368;20.962;2023-02-21T04:33:17;94863.63;;;7.98;79.33
23339;BME280;11841;49.368;20.962;2023-02-21T04:35:43;94862.03;;;7.97;79.21
23339;BME280;11841;49.368;20.962;2023-02-21T04:38:10;94868.75;;;7.93;79.73
23339;BME280;11841;49.368;20.962;2023-02-21T04:40:36;94865.13;;;7.94;80.14
23339;BME280;11841;49.368;20.962;2023-02-21T04:43:03;94861.44;;;7.95;79.58
23339;BME280;11841;49.368;20.962;2023-02-21T04:45:29;94874.25;;;7.91;80.22
23339;BME280;11841;49.368;20.962;2023-02-21T04:47:56;94872.44;;;7.92;80.58
23339;BME280;11841;49.368;20.962;2023-02-21T04:50:22;94863.47;;;7.93;80.06
23339;BME280;11841;49.368;20.962;2023-02-21T04:52:49;94869.72;;;7.98;79.89
23339;BME280;11841;49.368;20.962;2023-02-21T04:55:15;94874.78;;;8.00;79.85
23339;BME280;11841;49.368;20.962;2023-02-21T04:57:42;94867.81;;;8.05;79.69
23339;BME280;11841;49.368;20.962;2023-02-21T05:00:09;94865.09;;;8.12;79.58
23339;BME280;11841;49.368;20.962;2023-02-21T05:02:36;94881.53;;;8.14;79.53
23339;BME280;11841;49.368;20.962;2023-02-21T05:05:02;94882.66;;;8.18;79.17
23339;BME280;11841;49.368;20.962;2023-02-21T05:07:29;94883.13;;;8.15;79.56
23339;BME280;11841;49.368;20.962;2023-02-21T05:09:55;94889.59;;;8.19;79.31
23339;BME280;11841;49.368;20.962;2023-02-21T05:12:21;94891.19;;;8.20;79.10
23339;BME280;11841;49.368;20.962;2023-02-21T05:14:48;94893.69;;;8.15;79.77
23339;BME280;11841;49.368;20.962;2023-02-21T05:17:15;94893.09;;;8.13;79.65
23339;BME280;11841;49.368;20.962;2023-02-21T05:19:41;94892.53;;;8.11;79.88
23339;BME280;11841;49.368;20.962;2023-02-21T05:22:08;94884.59;;;8.11;79.89
23339;BME280;11841;49.368;20.962;2023-02-21T05:24:39;94892.53;;;8.11;79.85
23339;BME280;11841;49.368;20.962;2023-02-21T05:27:08;94891.84;;;8.15;79.52
23339;BME280;11841;49.368;20.962;2023-02-21T05:29:36;94862.44;;;8.12;80.05
23339;BME280;11841;49.368;20.962;2023-02-21T05:32:03;94882.38;;;8.08;79.88
23339;BME280;11841;49.368;20.962;2023-02-21T05:34:29;94873.28;;;8.22;79.77
23339;BME280;11841;49.368;20.962;2023-02-21T05:36:56;94872.09;;;8.24;79.23
23339;BME280;11841;49.368;20.962;2023-02-21T05:39:22;94873.69;;;8.25;79.52
23339;BME280;11841;49.368;20.962;2023-02-21T05:41:49;94890.16;;;8.21;79.67
23339;BME280;11841;49.368;20.962;2023-02-21T05:44:16;94874.56;;;8.19;79.89
23339;BME280;11841;49.368;20.962;2023-02-21T05:46:42;94866.41;;;8.21;79.84
23339;BME280;11841;49.368;20.962;2023-02-21T05:49:11;94874.97;;;8.16;80.19
23339;BME280;11841;49.368;20.962;2023-02-21T05:51:38;94864.00;;;8.19;79.85
23339;BME280;11841;49.368;20.962;2023-02-21T05:54:06;94865.22;;;8.17;80.97
23339;BME280;11841;49.368;20.962;2023-02-21T05:56:37;94863.63;;;8.16;80.99
23339;BME280;11841;49.368;20.962;2023-02-21T05:59:03;94871.97;;;8.13;80.83
23339;BME280;11841;49.368;20.962;2023-02-21T06:01:30;94868.47;;;8.19;81.14
23339;BME280;11841;49.368;20.962;2023-02-21T06:03:56;94870.88;;;8.20;80.72
23339;BME280;11841;49.368;20.962;2023-02-21T06:06:23;94877.75;;;8.21;80.99
23339;BME280;11841;49.368;20.962;2023-02-21T06:08:49;94873.28;;;8.22;80.71
23339;BME280;11841;49.368;20.962;2023-02-21T06:11:21;94880.47;;;8.15;81.38
23339;BME280;11841;49.368;20.962;2023-02-21T06:13:50;94879.84;;;8.19;81.09
23339;BME280;11841;49.368;20.962;2023-02-21T06:16:17;94885.31;;;8.18;81.40
23339;BME280;11841;49.368;20.962;2023-02-21T06:18:44;94886.81;;;8.14;81.34
23339;BME280;11841;49.368;20.962;2023-02-21T06:21:10;94890.91;;;8.10;81.66
23339;BME280;11841;49.368;20.962;2023-02-21T06:23:37;94897.66;;;8.06;81.71
23339;BME280;11841;49.368;20.962;2023-02-21T06:26:03;94901.69;;;8.08;81.69
23339;BME280;11841;49.368;20.962;2023-02-21T06:28:30;94914.06;;;8.08;82.44
23339;BME280;11841;49.368;20.962;2023-02-21T06:30:56;94910.63;;;8.07;81.61
23339;BME280;11841;49.368;20.962;2023-02-21T06:33:23;94913.88;;;8.09;81.41
23339;BME280;11841;49.368;20.962;2023-02-21T06:35:49;94899.84;;;8.09;81.89
23339;BME280;11841;49.368;20.962;2023-02-21T06:38:16;94906.75;;;8.10;81.57
23339;BME280;11841;49.368;20.962;2023-02-21T06:40:42;94907.56;;;8.10;82.21
23339;BME280;11841;49.368;20.962;2023-02-21T06:43:10;94907.31;;;8.12;82.15
23339;BME280;11841;49.368;20.962;2023-02-21T06:45:36;94912.59;;;8.12;82.21
23339;BME280;11841;49.368;20.962;2023-02-21T06:48:03;94904.25;;;8.15;82.09
23339;BME280;11841;49.368;20.962;2023-02-21T06:50:29;94924.34;;;8.16;81.77
23339;BME280;11841;49.368;20.962;2023-02-21T06:52:56;94925.81;;;8.12;81.92
23339;BME280;11841;49.368;20.962;2023-02-21T06:55:23;94927.41;;;8.13;82.15
23339;BME280;11841;49.368;20.962;2023-02-21T06:57:51;94921.78;;;8.09;82.80
23339;BME280;11841;49.368;20.962;2023-02-21T07:00:17;94932.13;;;8.11;82.38
23339;BME280;11841;49.368;20.962;2023-02-21T07:02:44;94923.03;;;8.07;83.11
23339;BME280;11841;49.368;20.962;2023-02-21T07:05:10;94934.31;;;7.96;83.45
23339;BME280;11841;49.368;20.962;2023-02-21T07:07:37;94928.00;;;7.97;83.91
23339;BME280;11841;49.368;20.962;2023-02-21T07:10:04;94919.56;;;7.88;84.32
23339;BME280;11841;49.368;20.962;2023-02-21T07:12:30;94934.59;;;7.88;84.45
23339;BME280;11841;49.368;20.962;2023-02-21T07:14:57;94939.00;;;7.94;84.52
23339;BME280;11841;49.368;20.962;2023-02-21T07:17:23;94929.59;;;7.98;84.33
23339;BME280;11841;49.368;20.962;2023-02-21T07:19:49;94936.75;;;7.97;84.04
23339;BME280;11841;49.368;20.962;2023-02-21T07:22:18;94934.75;;;7.93;84.26
23339;BME280;11841;49.368;20.962;2023-02-21T07:24:51;94936.53;;;7.99;84.35
23339;BME280;11841;49.368;20.962;2023-02-21T07:27:19;94946.47;;;7.97;84.36
23339;BME280;11841;49.368;20.962;2023-02-21T07:29:48;94943.25;;;7.95;84.62
23339;BME280;11841;49.368;20.962;2023-02-21T07:32:15;94957.25;;;7.95;85.09
23339;BME280;11841;49.368;20.962;2023-02-21T07:34:42;94964.97;;;7.97;85.10
23339;BME280;11841;49.368;20.962;2023-02-21T07:37:09;94972.22;;;8.01;84.84
23339;BME280;11841;49.368;20.962;2023-02-21T07:39:36;94965.72;;;8.04;84.64
23339;BME280;11841;49.368;20.962;2023-02-21T07:42:03;94973.25;;;8.00;85.27
23339;BME280;11841;49.368;20.962;2023-02-21T07:44:30;94985.69;;;7.93;85.80
23339;BME280;11841;49.368;20.962;2023-02-21T07:46:56;94986.88;;;7.97;85.42
23339;BME280;11841;49.368;20.962;2023-02-21T07:49:23;94990.97;;;7.93;85.74
23339;BME280;11841;49.368;20.962;2023-02-21T07:51:50;94986.50;;;7.94;85.94
23339;BME280;11841;49.368;20.962;2023-02-21T07:54:16;94990.59;;;7.90;87.50
23339;BME280;11841;49.368;20.962;2023-02-21T07:56:44;94999.13;;;7.92;87.47
23339;BME280;11841;49.368;20.962;2023-02-21T07:59:10;95000.72;;;7.93;88.09
23339;BME280;11841;49.368;20.962;2023-02-21T08:01:37;95012.22;;;7.80;89.85
23339;BME280;11841;49.368;20.962;2023-02-21T08:04:04;94993.53;;;7.82;89.11
23339;BME280;11841;49.368;20.962;2023-02-21T08:06:30;95007.31;;;7.84;89.47
23339;BME280;11841;49.368;20.962;2023-02-21T08:08:57;95006.06;;;7.86;90.10
23339;BME280;11841;49.368;20.962;2023-02-21T08:11:23;95010.69;;;7.91;89.50
23339;BME280;11841;49.368;20.962;2023-02-21T08:13:49;94997.84;;;7.94;89.15
23339;BME280;11841;49.368;20.962;2023-02-21T08:16:16;95002.75;;;7.91;89.88
23339;BME280;11841;49.368;20.962;2023-02-21T08:18:42;94997.84;;;7.94;89.15
23339;BME280;11841;49.368;20.962;2023-02-21T08:21:12;94996.69;;;7.90;89.75
23339;BME280;11841;49.368;20.962;2023-02-21T08:23:38;94998.44;;;7.78;91.38
23339;BME280;11841;49.368;20.962;2023-02-21T08:26:05;95003.78;;;7.72;92.15
23339;BME280;11841;49.368;20.962;2023-02-21T08:28:32;94990.78;;;7.70;92.81
23339;BME280;11841;49.368;20.962;2023-02-21T08:30:58;94997.25;;;7.74;92.75
23339;BME280;11841;49.368;20.962;2023-02-21T08:33:25;94998.72;;;7.70;93.65
23339;BME280;11841;49.368;20.962;2023-02-21T08:35:51;94985.09;;;7.73;93.38
23339;BME280;11841;49.368;20.962;2023-02-21T08:38:18;94993.97;;;7.79;93.08
23339;BME280;11841;49.368;20.962;2023-02-21T08:40:44;94990.88;;;7.82;92.48
23339;BME280;11841;49.368;20.962;2023-02-21T08:43:11;94983.72;;;7.89;92.35
23339;BME280;11841;49.368;20.962;2023-02-21T08:45:37;94997.94;;;7.88;92.83
23339;BME280;11841;49.368;20.962;2023-02-21T08:48:04;94998.53;;;7.90;91.99
23339;BME280;11841;49.368;20.962;2023-02-21T08:50:30;95020.66;;;7.89;91.59
23339;BME280;11841;49.368;20.962;2023-02-21T08:52:58;95013.69;;;7.94;91.65
23339;BME280;11841;49.368;20.962;2023-02-21T08:55:25;95013.66;;;8.01;91.32
23339;BME280;11841;49.368;20.962;2023-02-21T08:57:52;95021.34;;;8.02;89.99
23339;BME280;11841;49.368;20.962;2023-02-21T09:00:19;95024.94;;;8.08;89.74
23339;BME280;11841;49.368;20.962;2023-02-21T09:02:49;95039.34;;;8.12;89.08
23339;BME280;11841;49.368;20.962;2023-02-21T09:05:16;95032.22;;;8.12;88.86
23339;BME280;11841;49.368;20.962;2023-02-21T09:07:46;95045.59;;;8.17;89.12
23339;BME280;11841;49.368;20.962;2023-02-21T09:10:13;95048.44;;;8.16;88.75
23339;BME280;11841;49.368;20.962;2023-02-21T09:12:39;95036.25;;;8.15;89.64
23339;BME280;11841;49.368;20.962;2023-02-21T09:15:06;95029.53;;;8.19;89.27
23339;BME280;11841;49.368;20.962;2023-02-21T09:17:33;95046.56;;;8.23;88.68
23339;BME280;11841;49.368;20.962;2023-02-21T09:20:03;95054.28;;;8.24;89.06
23339;BME280;11841;49.368;20.962;2023-02-21T09:22:32;95045.09;;;8.27;88.74
23339;BME280;11841;49.368;20.962;2023-02-21T09:24:59;95054.28;;;8.24;87.99
23339;BME280;11841;49.368;20.962;2023-02-21T09:27:26;95054.06;;;8.26;88.03
23339;BME280;11841;49.368;20.962;2023-02-21T09:30:05;95053.63;;;8.29;87.22
23339;BME280;11841;49.368;20.962;2023-02-21T09:32:32;95054.00;;;8.32;87.18
23339;BME280;11841;49.368;20.962;2023-02-21T09:34:58;95052.16;;;8.33;88.12
23339;BME280;11841;49.368;20.962;2023-02-21T09:37:25;95064.94;;;8.36;87.76
23339;BME280;11841;49.368;20.962;2023-02-21T09:39:52;95065.75;;;8.36;87.62
23339;BME280;11841;49.368;20.962;2023-02-21T09:42:18;95071.44;;;8.33;87.20
23339;BME280;11841;49.368;20.962;2023-02-21T09:44:47;95066.53;;;8.37;87.39
23339;BME280;11841;49.368;20.962;2023-02-21T09:47:25;95055.59;;;8.33;87.73
23339;BME280;11841;49.368;20.962;2023-02-21T09:50:00;95066.53;;;8.37;87.56
23339;BME280;11841;49.368;20.962;2023-02-21T09:52:37;95055.53;;;8.40;86.86
23339;BME280;11841;49.368;20.962;2023-02-21T09:55:10;95048.94;;;8.49;84.86
23339;BME280;11841;49.368;20.962;2023-02-21T09:57:38;95042.97;;;8.53;84.09
23339;BME280;11841;49.368;20.962;2023-02-21T10:00:18;95051.28;;;8.57;83.88
23339;BME280;11841;49.368;20.962;2023-02-21T10:10:24;95105.38;;;8.54;86.37
23339;BME280;11841;49.368;20.962;2023-02-21T10:13:09;95088.56;;;8.49;88.13
23339;BME280;11841;49.368;20.962;2023-02-21T10:15:47;95082.28;;;8.50;88.68
23339;BME280;11841;49.368;20.962;2023-02-21T10:23:16;95071.34;;;8.46;91.36
23339;BME280;11841;49.368;20.962;2023-02-21T10:25:44;95086.38;;;8.46;91.79
23339;BME280;11841;49.368;20.962;2023-02-21T10:28:28;95094.72;;;8.43;91.00
23339;BME280;11841;49.368;20.962;2023-02-21T10:30:59;95100.38;;;8.46;91.66
23339;BME280;11841;49.368;20.962;2023-02-21T10:33:28;95079.53;;;8.38;92.81
23339;BME280;11841;49.368;20.962;2023-02-21T10:35:55;95087.44;;;8.38;93.12
23339;BME280;11841;49.368;20.962;2023-02-21T10:38:25;95108.00;;;8.36;93.10
23339;BME280;11841;49.368;20.962;2023-02-21T10:43:34;95095.81;;;8.35;93.67
23339;BME280;11841;49.368;20.962;2023-02-21T10:48:43;95090.16;;;8.32;94.33
23339;BME280;11841;49.368;20.962;2023-02-21T10:51:12;95098.22;;;8.37;93.44
23339;BME280;11841;49.368;20.962;2023-02-21T10:53:44;95084.75;;;8.45;91.00
23339;BME280;11841;49.368;20.962;2023-02-21T10:58:45;95093.00;;;8.73;89.94
23339;BME280;11841;49.368;20.962;2023-02-21T11:03:51;95100.69;;;8.75;89.27
23339;BME280;11841;49.368;20.962;2023-02-21T11:06:23;95101.97;;;8.72;89.56
23339;BME280;11841;49.368;20.962;2023-02-21T11:08:53;95079.19;;;8.71;90.22
23339;BME280;11841;49.368;20.962;2023-02-21T11:16:42;95092.09;;;8.79;89.05
23339;BME280;11841;49.368;20.962;2023-02-21T11:19:11;95089.19;;;8.87;88.54
23339;BME280;11841;49.368;20.962;2023-02-21T11:21:39;95081.41;;;8.92;89.07
23339;BME280;11841;49.368;20.962;2023-02-21T11:24:07;95088.06;;;8.95;88.37
23339;BME280;11841;49.368;20.962;2023-02-21T11:26:49;95082.53;;;8.96;87.71
23339;BME280;11841;49.368;20.962;2023-02-21T11:29:18;95082.53;;;8.96;88.13
23339;BME280;11841;49.368;20.962;2023-02-21T11:31:46;95092.69;;;8.99;88.00
23339;BME280;11841;49.368;20.962;2023-02-21T11:34:13;95102.25;;;9.00;88.65
23339;BME280;11841;49.368;20.962;2023-02-21T11:36:41;95099.72;;;9.05;86.48
23339;BME280;11841;49.368;20.962;2023-02-21T11:41:46;95126.41;;;9.04;83.77
23339;BME280;11841;49.368;20.962;2023-02-21T11:46:56;95085.91;;;9.21;82.88
23339;BME280;11841;49.368;20.962;2023-02-21T11:49:38;95103.06;;;9.30;82.82
23339;BME280;11841;49.368;20.962;2023-02-21T11:52:16;95119.66;;;9.37;79.33
23339;BME280;11841;49.368;20.962;2023-02-21T11:54:44;95111.66;;;9.44;79.06
23339;BME280;11841;49.368;20.962;2023-02-21T12:00:23;95092.91;;;9.45;78.90
23339;BME280;11841;49.368;20.962;2023-02-21T12:05:45;95108.53;;;9.47;76.41
23339;BME280;11841;49.368;20.962;2023-02-21T12:08:19;95103.84;;;9.49;75.45
23339;BME280;11841;49.368;20.962;2023-02-21T12:24:10;95095.66;;;9.68;73.22
23339;BME280;11841;49.368;20.962;2023-02-21T12:26:50;95084.59;;;9.71;72.44
23339;BME280;11841;49.368;20.962;2023-02-21T12:32:10;95082.19;;;9.82;73.02
23339;BME280;11841;49.368;20.962;2023-02-21T12:35:02;95092.34;;;9.85;72.07
23339;BME280;11841;49.368;20.962;2023-02-21T12:48:00;95074.13;;;9.76;72.36
23339;BME280;11841;49.368;20.962;2023-02-21T12:50:30;95071.50;;;9.76;72.67
23339;BME280;11841;49.368;20.962;2023-02-21T12:53:05;95074.25;;;9.82;73.24
23339;BME280;11841;49.368;20.962;2023-02-21T12:55:36;95069.19;;;9.80;74.09
23339;BME280;11841;49.368;20.962;2023-02-21T12:58:10;95062.28;;;9.79;76.04
23339;BME280;11841;49.368;20.962;2023-02-21T13:00:42;95063.69;;;9.82;77.35
23339;BME280;11841;49.368;20.962;2023-02-21T13:03:24;95059.31;;;9.87;76.26
23339;BME280;11841;49.368;20.962;2023-02-21T13:05:57;95052.75;;;9.90;76.63
23339;BME280;11841;49.368;20.962;2023-02-21T13:11:04;95055.88;;;9.98;76.23
23339;BME280;11841;49.368;20.962;2023-02-21T13:13:31;95074.53;;;10.03;76.13
23339;BME280;11841;49.368;20.962;2023-02-21T13:15:59;95064.75;;;10.04;75.56
23339;BME280;11841;49.368;20.962;2023-02-21T13:18:32;95110.94;;;10.08;74.12
23339;BME280;11841;49.368;20.962;2023-02-21T13:23:57;95083.63;;;10.07;72.05
23339;BME280;11841;49.368;20.962;2023-02-21T13:26:43;95069.56;;;10.07;72.87
23339;BME280;11841;49.368;20.962;2023-02-21T13:29:16;95056.34;;;10.07;71.79
23339;BME280;11841;49.368;20.962;2023-02-21T13:31:43;95052.47;;;10.09;71.03
23339;BME280;11841;49.368;20.962;2023-02-21T13:34:11;95056.47;;;10.12;71.04
23339;BME280;11841;49.368;20.962;2023-02-21T13:36:41;95063.84;;;10.10;71.51
23339;BME280;11841;49.368;20.962;2023-02-21T13:41:39;95075.91;;;10.06;72.93
23339;BME280;11841;49.368;20.962;2023-02-21T13:44:07;95088.78;;;9.91;73.10
23339;BME280;11841;49.368;20.962;2023-02-21T13:51:48;95105.69;;;9.90;74.03
23339;BME280;11841;49.368;20.962;2023-02-21T13:54:22;95094.41;;;9.82;73.17
23339;BME280;11841;49.368;20.962;2023-02-21T13:56:49;95103.38;;;9.82;73.42
23339;BME280;11841;49.368;20.962;2023-02-21T14:01:49;95123.97;;;9.79;72.94
23339;BME280;11841;49.368;20.962;2023-02-21T14:07:01;95117.19;;;9.72;73.85
23339;BME280;11841;49.368;20.962;2023-02-21T14:09:27;95146.34;;;9.65;73.95
23339;BME280;11841;49.368;20.962;2023-02-21T14:12:01;95130.34;;;9.60;73.73
23339;BME280;11841;49.368;20.962;2023-02-21T14:14:30;95134.25;;;9.58;74.17
23339;BME280;11841;49.368;20.962;2023-02-21T14:16:58;95129.78;;;9.58;74.47
23339;BME280;11841;49.368;20.962;2023-02-21T14:19:29;95142.28;;;9.51;73.60
23339;BME280;11841;49.368;20.962;2023-02-21T14:22:02;95125.06;;;9.60;74.49
23339;BME280;11841;49.368;20.962;2023-02-21T14:24:33;95126.09;;;9.59;73.65
23339;BME280;11841;49.368;20.962;2023-02-21T14:29:32;95146.34;;;9.65;72.26
23339;BME280;11841;49.368;20.962;2023-02-21T14:37:15;95143.56;;;9.60;71.72
23339;BME280;11841;49.368;20.962;2023-02-21T14:39:43;95136.69;;;9.59;71.75
23339;BME280;11841;49.368;20.962;2023-02-21T14:45:15;95121.03;;;9.58;71.67
23339;BME280;11841;49.368;20.962;2023-02-21T14:55:54;95135.88;;;9.59;70.86
23339;BME280;11841;49.368;20.962;2023-02-21T15:01:04;95134.34;;;9.51;70.46
23339;BME280;11841;49.368;20.962;2023-02-21T15:03:51;95133.75;;;9.49;72.46
23339;BME280;11841;49.368;20.962;2023-02-21T15:06:19;95162.88;;;9.49;72.35
23339;BME280;11841;49.368;20.962;2023-02-21T15:08:48;95154.78;;;9.44;72.45
23339;BME280;11841;49.368;20.962;2023-02-21T15:11:25;95160.09;;;9.44;73.33
23339;BME280;11841;49.368;20.962;2023-02-21T15:14:10;95178.78;;;9.31;74.46
23339;BME280;11841;49.368;20.962;2023-02-21T15:16:37;95153.19;;;9.25;76.14
23339;BME280;11841;49.368;20.962;2023-02-21T15:19:05;95161.94;;;9.26;76.57
23339;BME280;11841;49.368;20.962;2023-02-21T15:21:31;95179.94;;;9.17;77.38
23339;BME280;11841;49.368;20.962;2023-02-21T15:23:59;95179.56;;;9.14;78.74
23339;BME280;11841;49.368;20.962;2023-02-21T15:26:27;95180.88;;;9.05;79.24
23339;BME280;11841;49.368;20.962;2023-02-21T15:29:02;95182.75;;;9.04;79.94
23339;BME280;11841;49.368;20.962;2023-02-21T15:31:36;95182.16;;;9.02;80.17
23339;BME280;11841;49.368;20.962;2023-02-21T15:34:04;95167.59;;;8.93;80.65
23339;BME280;11841;49.368;20.962;2023-02-21T15:36:31;95182.78;;;8.80;80.24